createdAt,value
2018-12-12T00:00:19.838Z,95.60
2018-12-12T00:02:49.478Z,96.50
2018-12-12T00:05:19.141Z,95.60
2018-12-12T00:07:49.097Z,95.70
2018-12-12T00:10:21.337Z,96.00
2018-12-12T00:12:50.988Z,96.30
2018-12-12T00:15:20.900Z,96.30
2018-12-12T00:17:50.990Z,95.90
2018-12-12T00:20:20.765Z,95.70
2018-12-12T00:22:50.433Z,95.70
2018-12-12T00:25:20.115Z,95.30
2018-12-12T00:27:49.898Z,97.10
2018-12-12T00:30:19.832Z,98.30
2018-12-12T00:32:49.644Z,98.90
2018-12-12T00:35:19.430Z,98.60
2018-12-12T00:37:49.113Z,97.10
2018-12-12T00:40:18.853Z,96.90
2018-12-12T00:42:48.662Z,97.40
2018-12-12T00:45:18.317Z,97.60
2018-12-12T00:47:47.894Z,97.90
2018-12-12T00:50:17.726Z,98.10
2018-12-12T00:52:47.462Z,97.00
2018-12-12T00:55:17.170Z,96.90
2018-12-12T00:57:47.202Z,96.50
2018-12-12T01:00:17.058Z,96.10
2018-12-12T01:02:46.694Z,94.80
2018-12-12T01:05:16.397Z,95.50
2018-12-12T01:07:45.997Z,96.60
2018-12-12T01:10:15.792Z,95.90
2018-12-12T01:12:45.436Z,95.70
2018-12-12T01:15:15.123Z,96.10
2018-12-12T01:17:44.767Z,96.50
2018-12-12T01:20:14.307Z,96.60
2018-12-12T01:22:43.904Z,97.80
2018-12-12T01:25:13.473Z,98.30
2018-12-12T01:27:43.177Z,98.30
2018-12-12T01:30:12.884Z,98.40
2018-12-12T01:32:42.701Z,98.40
2018-12-12T01:35:12.493Z,98.30
2018-12-12T01:37:42.089Z,97.20
2018-12-12T01:40:11.872Z,96.70
2018-12-12T01:42:41.517Z,96.60
2018-12-12T01:45:11.187Z,97.50
2018-12-12T01:47:40.846Z,96.70
2018-12-12T01:50:10.713Z,96.90
2018-12-12T01:52:40.492Z,96.20
2018-12-12T01:55:10.347Z,96.00
2018-12-12T01:57:40.084Z,95.80
2018-12-12T02:00:09.793Z,96.20
2018-12-12T02:02:39.669Z,97.70
2018-12-12T02:05:09.501Z,97.80
2018-12-12T02:07:39.253Z,97.80
2018-12-12T02:10:09.038Z,98.40
2018-12-12T02:12:38.760Z,98.80
2018-12-12T02:15:08.636Z,99.00
2018-12-12T02:17:38.451Z,98.70
2018-12-12T02:20:08.189Z,98.60
2018-12-12T02:22:37.659Z,96.70
2018-12-12T02:25:07.362Z,97.50
2018-12-12T02:27:37.136Z,97.90
2018-12-12T02:30:07.055Z,97.80
2018-12-12T02:32:36.798Z,96.50
2018-12-12T02:35:06.753Z,97.00
2018-12-12T02:37:36.594Z,96.80
2018-12-12T02:40:06.415Z,96.10
2018-12-12T02:42:35.941Z,96.40
2018-12-12T02:45:06.023Z,97.00
2018-12-12T02:47:35.609Z,97.00
2018-12-12T02:50:05.704Z,97.40
2018-12-12T02:52:35.518Z,98.00
2018-12-12T02:55:05.385Z,98.90
2018-12-12T02:57:35.042Z,99.80
2018-12-12T03:00:04.929Z,99.90
2018-12-12T03:02:35.068Z,99.90
2018-12-12T03:05:05.062Z,99.70
2018-12-12T03:07:34.718Z,99.20
2018-12-12T03:10:04.349Z,98.30
2018-12-12T03:12:33.986Z,97.70
2018-12-12T03:15:03.833Z,97.60
2018-12-12T03:17:33.547Z,97.60
2018-12-12T03:20:03.567Z,97.50
2018-12-12T03:22:33.441Z,97.30
2018-12-12T03:25:03.317Z,97.50
2018-12-12T03:27:33.241Z,97.60
2018-12-12T03:30:03.478Z,97.80
2018-12-12T03:32:33.525Z,98.30
2018-12-12T03:35:03.330Z,97.90
2018-12-12T03:37:33.077Z,98.00
2018-12-12T03:40:02.787Z,99.00
2018-12-12T03:42:32.922Z,98.80
2018-12-12T03:45:02.510Z,98.60
2018-12-12T03:47:32.205Z,97.80
2018-12-12T03:50:01.989Z,97.60
2018-12-12T03:52:31.534Z,96.80
2018-12-12T03:55:01.131Z,96.40
2018-12-12T03:57:30.702Z,97.50
2018-12-12T04:00:00.217Z,97.90
2018-12-12T04:02:29.880Z,98.10
2018-12-12T04:04:59.562Z,97.70
2018-12-12T04:07:29.235Z,97.70
2018-12-12T04:09:59.041Z,97.80
2018-12-12T04:12:28.694Z,97.60
2018-12-12T04:14:58.382Z,97.20
2018-12-12T04:17:28.181Z,97.30
2018-12-12T04:19:58.806Z,97.60
2018-12-12T04:22:28.512Z,97.70
2018-12-12T04:24:58.439Z,97.90
2018-12-12T04:27:28.245Z,97.40
2018-12-12T04:29:57.993Z,96.30
2018-12-12T04:32:27.590Z,98.10
2018-12-12T04:34:57.385Z,99.20
2018-12-12T04:37:27.116Z,98.00
2018-12-12T04:39:56.728Z,97.80
2018-12-12T04:42:26.394Z,97.00
2018-12-12T04:44:55.970Z,97.30
2018-12-12T04:47:25.644Z,98.20
2018-12-12T04:49:55.256Z,98.10
2018-12-12T04:52:24.927Z,98.20
2018-12-12T04:54:54.534Z,97.60
2018-12-12T04:57:24.145Z,98.10
2018-12-12T04:59:53.885Z,99.30
2018-12-12T05:02:26.854Z,98.70
2018-12-12T05:04:57.443Z,98.30
2018-12-12T05:07:27.293Z,98.30
2018-12-12T05:09:56.982Z,98.70
2018-12-12T05:12:26.584Z,97.90
2018-12-12T05:14:56.407Z,97.20
2018-12-12T05:17:26.163Z,98.20
2018-12-12T05:19:55.916Z,98.30
2018-12-12T05:22:25.582Z,97.50
2018-12-12T05:24:55.233Z,98.10
2018-12-12T05:27:24.841Z,97.50
2018-12-12T05:29:54.444Z,96.70
2018-12-12T05:32:24.006Z,97.30
2018-12-12T05:34:53.566Z,98.30
2018-12-12T05:37:23.190Z,98.30
2018-12-12T05:39:52.922Z,97.70
2018-12-12T05:42:22.678Z,98.30
2018-12-12T05:44:52.400Z,97.60
2018-12-12T05:47:22.230Z,97.00
2018-12-12T05:49:52.117Z,96.70
2018-12-12T05:52:22.089Z,97.40
2018-12-12T05:54:51.689Z,97.80
2018-12-12T05:57:21.722Z,97.50
2018-12-12T05:59:51.521Z,97.30
2018-12-12T06:02:21.539Z,97.30
2018-12-12T06:04:53.479Z,97.70
2018-12-12T06:07:23.098Z,98.20
2018-12-12T06:09:52.868Z,98.20
2018-12-12T06:12:22.416Z,98.90
2018-12-12T06:14:52.012Z,98.50
2018-12-12T06:17:21.742Z,98.30
2018-12-12T06:19:51.782Z,99.10
2018-12-12T06:22:21.653Z,99.40
2018-12-12T06:24:51.295Z,99.10
2018-12-12T06:27:20.873Z,97.40
2018-12-12T06:29:50.462Z,97.20
2018-12-12T06:32:20.299Z,97.30
2018-12-12T06:34:49.900Z,97.10
2018-12-12T06:37:19.695Z,96.80
2018-12-12T06:39:49.399Z,98.00
2018-12-12T06:42:21.738Z,97.60
2018-12-12T06:44:55.351Z,98.40
2018-12-12T06:47:25.112Z,98.10
2018-12-12T06:49:54.669Z,98.70
2018-12-12T06:52:24.212Z,98.60
2018-12-12T06:54:54.297Z,98.30
2018-12-12T06:57:25.340Z,97.90
2018-12-12T06:59:55.186Z,97.50
2018-12-12T07:02:24.968Z,96.90
2018-12-12T07:04:54.574Z,97.00
2018-12-12T07:07:24.145Z,96.40
2018-12-12T07:09:53.821Z,97.00
2018-12-12T07:12:23.585Z,97.30
2018-12-12T07:14:53.237Z,97.60
2018-12-12T07:17:22.853Z,99.50
2018-12-12T07:19:52.549Z,99.60
2018-12-12T07:22:22.189Z,99.60
2018-12-12T07:24:51.937Z,99.10
2018-12-12T07:27:21.434Z,98.00
2018-12-12T07:29:50.965Z,97.40
2018-12-12T07:32:25.841Z,98.20
2018-12-12T07:34:52.312Z,98.20
2018-12-12T07:37:21.935Z,97.80
2018-12-12T07:39:51.589Z,97.40
2018-12-12T07:42:21.268Z,97.20
2018-12-12T07:44:51.037Z,97.10
2018-12-12T07:47:20.581Z,97.10
2018-12-12T07:49:50.193Z,96.80
2018-12-12T07:52:19.797Z,96.90
2018-12-12T07:54:49.491Z,97.00
2018-12-12T07:57:19.150Z,97.10
2018-12-12T07:59:48.836Z,97.50
2018-12-12T08:02:18.569Z,97.40
2018-12-12T08:04:48.100Z,97.90
2018-12-12T08:07:17.834Z,97.70
2018-12-12T08:09:47.548Z,96.90
2018-12-12T08:12:17.345Z,96.80
2018-12-12T08:14:46.962Z,97.40
2018-12-12T08:17:16.584Z,97.60
2018-12-12T08:19:46.380Z,97.00
2018-12-12T08:22:16.284Z,96.80
2018-12-12T08:24:45.848Z,96.40
2018-12-12T08:27:15.413Z,96.40
2018-12-12T08:29:45.029Z,96.60
2018-12-12T08:32:14.602Z,96.30
2018-12-12T08:34:44.244Z,95.70
2018-12-12T08:37:14.577Z,95.00
2018-12-12T08:39:44.253Z,94.20
2018-12-12T08:42:13.952Z,93.90
2018-12-12T08:44:43.593Z,94.10
2018-12-12T08:47:13.313Z,93.00
2018-12-12T08:49:43.078Z,93.90
2018-12-12T08:52:12.822Z,93.10
2018-12-12T08:54:42.537Z,93.30
2018-12-12T08:57:12.249Z,93.20
2018-12-12T08:59:41.854Z,93.00
2018-12-12T09:02:11.653Z,93.00
2018-12-12T09:04:41.376Z,93.60
2018-12-12T09:07:11.201Z,93.70
2018-12-12T09:09:40.892Z,93.10
2018-12-12T09:12:10.687Z,94.60
2018-12-12T09:14:40.478Z,94.20
2018-12-12T09:17:10.136Z,94.50
2018-12-12T09:19:39.898Z,94.10
2018-12-12T09:22:09.432Z,94.90
2018-12-12T09:24:39.320Z,94.60
2018-12-12T09:27:08.856Z,93.70
2018-12-12T09:29:38.469Z,93.40
2018-12-12T09:32:08.085Z,93.20
2018-12-12T09:34:37.713Z,92.70
2018-12-12T09:37:07.455Z,93.30
2018-12-12T09:39:37.097Z,93.10
2018-12-12T09:42:06.735Z,92.30
2018-12-12T09:44:36.476Z,91.90
2018-12-12T09:47:06.089Z,91.50
2018-12-12T09:49:35.690Z,91.10
2018-12-12T09:52:05.302Z,90.00
2018-12-12T09:54:35.117Z,89.90
2018-12-12T09:57:04.841Z,91.20
2018-12-12T09:59:34.633Z,88.30
2018-12-12T10:02:04.238Z,88.90
2018-12-12T10:04:33.876Z,88.30
2018-12-12T10:07:03.498Z,88.20
2018-12-12T10:09:32.898Z,89.50
2018-12-12T10:12:02.679Z,88.60
2018-12-12T10:14:32.380Z,86.60
2018-12-12T10:17:02.303Z,85.80
2018-12-12T10:19:31.997Z,82.60
2018-12-12T10:22:01.914Z,82.90
2018-12-12T10:24:31.426Z,79.50
2018-12-12T10:27:00.792Z,76.10
2018-12-12T10:29:30.388Z,77.00
2018-12-12T10:32:00.247Z,76.80
2018-12-12T10:34:29.914Z,77.00
2018-12-12T10:36:59.597Z,72.90
2018-12-12T10:39:28.970Z,69.50
2018-12-12T10:41:58.293Z,65.40
2018-12-12T10:44:27.681Z,63.90
2018-12-12T10:46:57.045Z,65.70
2018-12-12T10:49:26.693Z,61.10
2018-12-12T10:51:56.473Z,56.50
2018-12-12T10:54:26.003Z,53.90
2018-12-12T10:56:55.705Z,48.90
2018-12-12T10:59:25.365Z,49.10
2018-12-12T11:01:59.123Z,53.30
2018-12-12T11:04:28.441Z,55.50
2018-12-12T11:06:58.281Z,57.90
2018-12-12T11:09:27.646Z,58.40
2018-12-12T11:11:57.326Z,57.50
2018-12-12T11:14:26.924Z,57.50
2018-12-12T11:16:56.561Z,57.20
2018-12-12T11:19:26.270Z,53.80
2018-12-12T11:21:55.773Z,53.40
2018-12-12T11:24:25.483Z,51.90
2018-12-12T11:26:54.825Z,47.60
2018-12-12T11:29:24.288Z,46.30
2018-12-12T11:31:53.894Z,44.10
2018-12-12T11:34:23.604Z,41.70
2018-12-12T11:36:53.107Z,41.60
2018-12-12T11:39:22.478Z,40.10
2018-12-12T11:41:51.891Z,40.90
2018-12-12T11:44:21.255Z,41.10
2018-12-12T11:46:50.656Z,43.20
2018-12-12T11:49:20.025Z,43.70
2018-12-12T11:51:49.441Z,41.60
2018-12-12T11:54:19.069Z,41.10
2018-12-12T11:56:48.405Z,45.20
2018-12-12T11:59:18.006Z,41.00
2018-12-12T12:01:47.435Z,40.80
2018-12-12T12:04:16.769Z,39.20
2018-12-12T12:06:46.524Z,38.70
2018-12-12T12:09:16.159Z,37.60
2018-12-12T12:11:45.538Z,38.00
2018-12-12T12:14:15.185Z,39.10
2018-12-12T12:16:44.668Z,38.60
2018-12-12T12:19:14.257Z,39.40
2018-12-12T12:21:43.881Z,39.20
2018-12-12T12:24:13.277Z,39.10
2018-12-12T12:26:42.690Z,36.90
2018-12-12T12:29:12.464Z,35.50
2018-12-12T12:31:42.560Z,36.20
2018-12-12T12:34:11.920Z,36.00
2018-12-12T12:36:41.441Z,35.00
2018-12-12T12:39:10.837Z,34.70
2018-12-12T12:41:40.183Z,33.90
2018-12-12T12:44:09.562Z,33.80
2018-12-12T12:46:39.277Z,34.80
2018-12-12T12:49:08.917Z,37.70
2018-12-12T12:51:38.557Z,42.70
2018-12-12T12:54:08.404Z,45.80
2018-12-12T12:56:37.792Z,47.70
2018-12-12T12:59:07.340Z,49.10
2018-12-12T13:01:37.025Z,49.70
2018-12-12T13:04:09.696Z,48.70
2018-12-12T13:06:38.393Z,50.00
2018-12-12T13:09:08.884Z,51.40
2018-12-12T13:11:38.782Z,52.80
2018-12-12T13:14:08.449Z,53.10
2018-12-12T13:16:38.248Z,53.20
2018-12-12T13:19:07.831Z,54.20
2018-12-12T13:21:37.215Z,54.40
2018-12-12T13:24:06.625Z,53.20
2018-12-12T13:26:36.321Z,52.50
2018-12-12T13:29:05.849Z,53.20
2018-12-12T13:31:35.273Z,53.80
2018-12-12T13:34:04.987Z,54.70
2018-12-12T13:36:34.653Z,54.90
2018-12-12T13:39:05.124Z,54.10
2018-12-12T13:41:34.680Z,54.80
2018-12-12T13:44:04.291Z,54.50
2018-12-12T13:46:34.084Z,55.20
2018-12-12T13:49:03.795Z,55.20
2018-12-12T13:51:33.389Z,55.90
2018-12-12T13:54:02.826Z,56.20
2018-12-12T13:56:32.544Z,56.30
2018-12-12T13:59:02.156Z,55.80
2018-12-12T14:01:31.725Z,57.30
2018-12-12T14:04:01.374Z,56.40
2018-12-12T14:06:30.976Z,56.80
2018-12-12T14:09:00.576Z,56.70
2018-12-12T14:11:30.269Z,57.50
2018-12-12T14:13:59.884Z,57.00
2018-12-12T14:16:31.370Z,56.50
2018-12-12T14:19:01.215Z,56.30
2018-12-12T14:21:31.029Z,56.30
2018-12-12T14:24:00.788Z,57.10
2018-12-12T14:26:32.519Z,57.60
2018-12-12T14:29:02.245Z,58.70
2018-12-12T14:31:31.865Z,60.10
2018-12-12T14:34:01.426Z,58.30
2018-12-12T14:36:31.017Z,60.40
2018-12-12T14:39:00.662Z,63.00
2018-12-12T14:41:31.916Z,62.00
2018-12-12T14:44:03.085Z,61.30
2018-12-12T14:46:32.876Z,61.20
2018-12-12T14:49:02.652Z,60.50
2018-12-12T14:51:32.394Z,62.30
2018-12-12T14:54:02.079Z,59.80
2018-12-12T14:56:31.709Z,57.50
2018-12-12T14:59:01.330Z,53.90
2018-12-12T15:01:31.059Z,52.90
2018-12-12T15:04:00.901Z,54.50
2018-12-12T15:06:30.858Z,55.20
2018-12-12T15:09:00.625Z,58.80
2018-12-12T15:11:30.245Z,62.30
2018-12-12T15:13:59.992Z,65.30
2018-12-12T15:16:29.681Z,66.00
2018-12-12T15:18:59.288Z,68.10
2018-12-12T15:21:28.912Z,68.20
2018-12-12T15:23:58.486Z,66.90
2018-12-12T15:26:28.292Z,69.80
2018-12-12T15:28:58.027Z,71.30
2018-12-12T15:31:27.729Z,71.60
2018-12-12T15:33:57.513Z,75.40
2018-12-12T15:36:27.246Z,74.60
2018-12-12T15:38:57.165Z,73.50
2018-12-12T15:41:26.839Z,75.30
2018-12-12T15:43:57.388Z,76.90
2018-12-12T15:46:27.191Z,77.00
2018-12-12T15:48:56.930Z,77.00
2018-12-12T15:51:26.613Z,78.10
2018-12-12T15:53:56.110Z,77.10
2018-12-12T15:56:25.918Z,78.40
2018-12-12T15:58:55.629Z,77.60
2018-12-12T16:01:25.237Z,73.80
2018-12-12T16:03:54.837Z,73.60
2018-12-12T16:06:24.382Z,74.30
2018-12-12T16:08:54.065Z,76.70
2018-12-12T16:11:23.781Z,76.50
2018-12-12T16:13:53.407Z,76.70
2018-12-12T16:16:23.134Z,76.10
2018-12-12T16:18:52.685Z,74.60
2018-12-12T16:21:22.339Z,74.70
2018-12-12T16:23:52.105Z,75.30
2018-12-12T16:26:21.688Z,77.50
2018-12-12T16:28:51.239Z,78.80
2018-12-12T16:31:20.839Z,81.70
2018-12-12T16:33:50.569Z,83.20
2018-12-12T16:36:20.178Z,81.10
2018-12-12T16:38:49.795Z,83.60
2018-12-12T16:41:19.549Z,83.40
2018-12-12T16:43:49.288Z,83.70
2018-12-12T16:46:19.086Z,80.70
2018-12-12T16:48:48.731Z,82.30
2018-12-12T16:51:18.339Z,82.20
2018-12-12T16:53:48.013Z,82.50
2018-12-12T16:56:17.601Z,82.10
2018-12-12T16:58:47.146Z,81.70
2018-12-12T17:01:16.816Z,81.70
2018-12-12T17:03:46.428Z,82.40
2018-12-12T17:06:16.176Z,82.80
2018-12-12T17:08:45.798Z,84.60
2018-12-12T17:11:15.556Z,83.20
2018-12-12T17:13:45.093Z,84.40
2018-12-12T17:16:14.737Z,84.40
2018-12-12T17:18:44.273Z,83.50
2018-12-12T17:21:14.619Z,84.80
2018-12-12T17:23:44.966Z,84.90
2018-12-12T17:26:15.726Z,86.40
2018-12-12T17:28:45.377Z,84.00
2018-12-12T17:31:15.445Z,83.20
2018-12-12T17:33:45.091Z,83.70
2018-12-12T17:36:14.812Z,84.40
2018-12-12T17:38:44.401Z,85.10
2018-12-12T17:41:14.055Z,84.90
2018-12-12T17:43:43.737Z,85.50
2018-12-12T17:46:13.981Z,86.90
2018-12-12T17:48:43.574Z,88.00
2018-12-12T17:51:13.267Z,87.50
2018-12-12T17:53:42.897Z,87.00
2018-12-12T17:56:12.601Z,87.80
2018-12-12T17:58:42.381Z,88.30
2018-12-12T18:01:11.953Z,89.10
2018-12-12T18:03:41.588Z,89.90
2018-12-12T18:06:11.226Z,90.40
2018-12-12T18:08:40.961Z,89.90
2018-12-12T18:11:10.552Z,89.60
2018-12-12T18:13:40.206Z,88.60
2018-12-12T18:16:10.315Z,89.00
2018-12-12T18:18:40.600Z,89.20
2018-12-12T18:21:10.329Z,89.50
2018-12-12T18:23:39.907Z,89.90
2018-12-12T18:26:09.717Z,90.10
2018-12-12T18:28:39.562Z,90.10
2018-12-12T18:31:09.240Z,90.30
2018-12-12T18:33:39.033Z,90.80
2018-12-12T18:36:08.678Z,90.60
2018-12-12T18:38:38.244Z,90.30
2018-12-12T18:41:08.553Z,89.90
2018-12-12T18:43:38.273Z,90.00
2018-12-12T18:46:07.988Z,89.80
2018-12-12T18:48:38.727Z,86.80
2018-12-12T18:51:09.044Z,86.00
2018-12-12T18:53:38.859Z,87.30
2018-12-12T18:56:10.486Z,85.80
2018-12-12T18:58:40.329Z,86.30
2018-12-12T19:01:10.090Z,85.50
2018-12-12T19:03:39.756Z,85.00
2018-12-12T19:06:09.658Z,85.70
2018-12-12T19:08:39.569Z,86.00
2018-12-12T19:11:09.196Z,84.30
2018-12-12T19:13:38.882Z,82.80
2018-12-12T19:16:08.536Z,82.60
2018-12-12T19:18:38.085Z,82.60
2018-12-12T19:21:07.701Z,82.80
2018-12-12T19:23:37.605Z,82.70
2018-12-12T19:26:07.656Z,83.20
2018-12-12T19:28:37.283Z,83.00
2018-12-12T19:31:07.301Z,84.00
2018-12-12T19:33:36.865Z,84.40
2018-12-12T19:36:07.248Z,85.10
2018-12-12T19:38:36.892Z,84.80
2018-12-12T19:41:06.397Z,84.60
2018-12-12T19:43:36.128Z,84.00
2018-12-12T19:46:06.038Z,84.40
2018-12-12T19:48:35.859Z,84.20
2018-12-12T19:51:05.490Z,85.00
2018-12-12T19:53:35.191Z,83.70
2018-12-12T19:56:04.884Z,83.50
2018-12-12T19:58:34.503Z,85.10
2018-12-12T20:01:04.226Z,84.20
2018-12-12T20:03:33.828Z,84.20
2018-12-12T20:06:03.513Z,83.90
2018-12-12T20:08:33.300Z,85.40
2018-12-12T20:11:02.853Z,84.80
2018-12-12T20:13:32.453Z,84.90
2018-12-12T20:16:02.051Z,84.30
2018-12-12T20:18:31.889Z,84.60
2018-12-12T20:21:01.590Z,83.80
2018-12-12T20:23:31.253Z,82.50
2018-12-12T20:26:00.904Z,82.90
2018-12-12T20:28:30.504Z,83.10
2018-12-12T20:31:00.217Z,83.10
2018-12-12T20:33:30.010Z,83.70
2018-12-12T20:35:59.798Z,83.50
2018-12-12T20:38:29.455Z,83.80
2018-12-12T20:40:59.082Z,85.10
2018-12-12T20:43:28.632Z,85.30
2018-12-12T20:45:58.356Z,86.00
2018-12-12T20:48:28.046Z,85.00
2018-12-12T20:50:57.649Z,84.30
2018-12-12T20:53:27.236Z,84.60
2018-12-12T20:55:56.984Z,83.50
2018-12-12T20:58:26.774Z,85.70
2018-12-12T21:00:56.549Z,89.10
2018-12-12T21:03:26.098Z,87.80
2018-12-12T21:05:55.690Z,88.00
2018-12-12T21:08:25.349Z,88.70
2018-12-12T21:10:55.135Z,87.60
2018-12-12T21:13:24.927Z,88.90
2018-12-12T21:15:54.568Z,88.70
2018-12-12T21:18:24.265Z,89.50
2018-12-12T21:20:54.075Z,89.20
2018-12-12T21:23:23.813Z,88.00
2018-12-12T21:25:53.749Z,88.40
2018-12-12T21:28:23.338Z,88.50
2018-12-12T21:30:52.931Z,90.00
2018-12-12T21:33:22.537Z,88.10
2018-12-12T21:35:52.157Z,87.30
2018-12-12T21:38:21.766Z,87.30
2018-12-12T21:40:51.354Z,87.80
2018-12-12T21:43:21.021Z,87.90
2018-12-12T21:45:50.840Z,87.80
2018-12-12T21:48:20.376Z,88.50
2018-12-12T21:50:50.077Z,87.40
2018-12-12T21:53:19.729Z,88.50
2018-12-12T21:55:49.572Z,88.30
2018-12-12T21:58:19.080Z,90.00
2018-12-12T22:00:48.701Z,90.40
2018-12-12T22:03:18.418Z,90.00
2018-12-12T22:05:48.227Z,90.10
2018-12-12T22:08:17.863Z,89.90
2018-12-12T22:10:47.519Z,90.10
2018-12-12T22:13:17.161Z,90.10
2018-12-12T22:15:46.881Z,90.00
2018-12-12T22:18:16.468Z,89.80
2018-12-12T22:20:46.390Z,89.70
2018-12-12T22:23:15.996Z,90.30
2018-12-12T22:25:45.600Z,90.60
2018-12-12T22:28:15.230Z,90.60
2018-12-12T22:30:44.821Z,90.90
2018-12-12T22:33:14.479Z,91.40
2018-12-12T22:35:44.217Z,91.10
2018-12-12T22:38:14.016Z,92.00
2018-12-12T22:40:43.565Z,91.90
2018-12-12T22:43:13.197Z,91.80
2018-12-12T22:45:42.878Z,91.60
2018-12-12T22:48:12.825Z,91.70
2018-12-12T22:50:42.477Z,91.80
2018-12-12T22:53:12.216Z,91.70
2018-12-12T22:55:41.982Z,91.80
2018-12-12T22:58:11.590Z,91.80
2018-12-12T23:00:44.652Z,92.10
2018-12-12T23:03:14.384Z,92.00
2018-12-12T23:05:43.933Z,92.20
2018-12-12T23:08:14.593Z,92.30
2018-12-12T23:10:46.386Z,92.60
2018-12-12T23:13:16.129Z,92.60
2018-12-12T23:15:45.816Z,92.30
2018-12-12T23:18:15.530Z,92.00
2018-12-12T23:20:45.345Z,91.70
2018-12-12T23:23:14.948Z,91.60
2018-12-12T23:25:44.569Z,91.50
2018-12-12T23:28:14.224Z,91.40
2018-12-12T23:30:43.850Z,90.30
2018-12-12T23:33:13.353Z,91.30
2018-12-12T23:35:42.958Z,91.30
2018-12-12T23:38:12.565Z,91.00
2018-12-12T23:40:42.185Z,90.70
2018-12-12T23:43:11.829Z,91.20
2018-12-12T23:45:41.424Z,91.30
2018-12-12T23:48:11.121Z,91.50
2018-12-12T23:50:40.938Z,91.50
2018-12-12T23:53:10.553Z,91.80
2018-12-12T23:55:40.251Z,92.10
2018-12-12T23:58:10.038Z,92.00
